createdAt,value
2019-03-22T00:02:40.000Z,991.39
2019-03-22T00:12:57.706Z,991.43
2019-03-22T00:22:33.617Z,991.38
2019-03-22T00:32:49.764Z,991.26
2019-03-22T00:45:55.349Z,991.22
2019-03-22T00:46:53.513Z,991.17
2019-03-22T01:04:08.519Z,991.17
2019-03-22T01:05:05.153Z,991.15
2019-03-22T01:08:48.286Z,991.11
2019-03-22T01:22:07.155Z,991.06
2019-03-22T01:23:12.743Z,991.08
2019-03-22T01:29:04.686Z,991.03
2019-03-22T01:30:10.931Z,990.99
2019-03-22T01:42:15.557Z,991.01
2019-03-22T01:43:13.864Z,990.99
2019-03-22T01:48:13.782Z,990.94
2019-03-22T01:48:48.904Z,990.95
2019-03-22T01:49:47.427Z,990.93
2019-03-22T01:50:44.821Z,990.93
2019-03-22T01:53:48.248Z,990.90
2019-03-22T01:57:52.884Z,990.89
2019-03-22T01:58:44.714Z,990.91
2019-03-22T02:03:18.511Z,990.92
2019-03-22T02:10:16.721Z,990.83
2019-03-22T02:13:56.214Z,990.76
2019-03-22T02:17:49.086Z,990.76
2019-03-22T02:22:24.917Z,990.74
2019-03-22T02:23:20.594Z,990.73
2019-03-22T02:25:56.542Z,990.76
2019-03-22T02:28:03.278Z,990.74
2019-03-22T02:38:37.388Z,990.64
2019-03-22T02:42:12.188Z,990.64
2019-03-22T02:58:38.764Z,990.58
2019-03-22T02:59:42.806Z,990.57
2019-03-22T03:04:10.575Z,990.62
2019-03-22T03:14:53.886Z,990.62
2019-03-22T03:22:51.205Z,990.67
2019-03-22T03:23:50.048Z,990.69
2019-03-22T03:25:57.417Z,990.68
2019-03-22T03:32:27.658Z,990.68
2019-03-22T03:33:27.959Z,990.64
2019-03-22T03:34:28.171Z,990.69
2019-03-22T04:27:12.397Z,990.90
2019-03-22T04:48:01.388Z,990.85
2019-03-22T05:01:21.980Z,990.78
2019-03-22T05:03:17.130Z,990.79
2019-03-22T05:06:54.020Z,990.81
2019-03-22T05:07:50.263Z,990.84
2019-03-22T05:13:29.284Z,990.82
2019-03-22T05:14:30.887Z,990.83
2019-03-22T05:15:22.369Z,990.79
2019-03-22T05:16:20.230Z,990.81
2019-03-22T05:17:23.553Z,990.80
2019-03-22T05:31:48.932Z,990.83
2019-03-22T05:32:33.708Z,990.86
2019-03-22T05:33:33.721Z,990.86
2019-03-22T05:34:30.842Z,990.83
2019-03-22T05:35:35.695Z,990.83
2019-03-22T05:36:34.115Z,990.85
2019-03-22T05:37:33.255Z,990.86
2019-03-22T05:42:09.833Z,990.88
2019-03-22T05:43:08.674Z,990.87
2019-03-22T05:44:05.757Z,990.89
2019-03-22T05:45:04.785Z,990.89
2019-03-22T05:47:41.461Z,990.90
2019-03-22T05:48:33.947Z,990.92
2019-03-22T05:50:38.403Z,990.91
2019-03-22T05:51:36.964Z,990.91
2019-03-22T05:52:37.616Z,990.89
2019-03-22T05:54:34.564Z,990.96
2019-03-22T06:24:45.206Z,991.11
2019-03-22T12:24:46.330Z,989.72
2019-03-22T12:25:21.038Z,989.79
2019-03-22T12:26:20.931Z,989.70
2019-03-22T14:48:48.615Z,988.49
2019-03-22T14:49:48.321Z,988.49
2019-03-22T14:50:48.314Z,988.44
2019-03-22T14:59:23.735Z,988.40
2019-03-22T15:00:23.724Z,988.34
2019-03-22T15:01:23.620Z,988.30
2019-03-22T15:04:23.400Z,988.25
2019-03-22T15:05:23.200Z,988.24
2019-03-22T15:06:23.186Z,988.21
2019-03-22T15:07:23.098Z,988.23
2019-03-22T15:08:23.039Z,988.23
2019-03-22T15:09:22.961Z,988.24
2019-03-22T15:10:22.872Z,988.26
2019-03-22T15:11:22.858Z,988.25
2019-03-22T15:12:22.760Z,988.28
2019-03-22T15:13:22.680Z,988.25
2019-03-22T15:14:22.599Z,988.26
2019-03-22T15:15:22.642Z,988.21
2019-03-22T15:16:22.482Z,988.21
2019-03-22T15:17:22.427Z,988.20
2019-03-22T15:18:22.234Z,988.18
2019-03-22T15:19:22.201Z,988.21
2019-03-22T15:20:22.112Z,988.17
2019-03-22T15:21:22.104Z,988.17
2019-03-22T15:22:22.116Z,988.15
2019-03-22T15:23:22.005Z,988.15
2019-03-22T15:24:21.855Z,988.17
2019-03-22T15:25:21.795Z,988.17
2019-03-22T15:26:21.669Z,988.19
2019-03-22T15:27:21.702Z,988.20
2019-03-22T15:28:21.589Z,988.19
2019-03-22T15:29:21.516Z,988.22
2019-03-22T15:30:21.470Z,988.16
2019-03-22T15:31:21.394Z,988.20
2019-03-22T15:32:21.285Z,988.15
2019-03-22T15:33:21.213Z,988.14
2019-03-22T15:34:21.118Z,988.18
2019-03-22T15:35:21.282Z,988.17
2019-03-22T15:36:21.012Z,988.15
2019-03-22T15:37:21.064Z,988.15
2019-03-22T15:38:21.071Z,988.15
2019-03-22T15:39:21.026Z,988.15
2019-03-22T15:40:20.664Z,988.11
2019-03-22T15:41:20.646Z,988.11
2019-03-22T15:42:20.545Z,988.15
2019-03-22T15:43:20.443Z,988.13
2019-03-22T15:44:20.479Z,988.12
2019-03-22T15:45:20.329Z,988.14
2019-03-22T15:46:20.324Z,988.14
2019-03-22T15:47:20.173Z,988.15
2019-03-22T15:48:20.157Z,988.13
2019-03-22T15:49:20.024Z,988.12
2019-03-22T15:50:19.948Z,988.11
2019-03-22T15:51:19.886Z,988.15
2019-03-22T15:52:19.825Z,988.12
2019-03-22T15:53:19.784Z,988.15
2019-03-22T15:54:19.665Z,988.12
2019-03-22T15:55:19.585Z,988.13
2019-03-22T15:56:19.547Z,988.15
2019-03-22T15:57:19.466Z,988.15
2019-03-22T15:58:19.407Z,988.14
2019-03-22T15:59:19.353Z,988.11
2019-03-22T16:00:19.218Z,988.11
2019-03-22T16:01:19.204Z,988.10
2019-03-22T16:02:19.132Z,988.08
2019-03-22T16:03:19.087Z,988.07
2019-03-22T16:04:18.995Z,988.05
2019-03-22T16:05:18.860Z,988.08
2019-03-22T16:06:18.801Z,988.08
2019-03-22T16:07:18.761Z,988.04
2019-03-22T16:08:18.640Z,988.06
2019-03-22T16:09:18.576Z,988.07
2019-03-22T16:10:18.538Z,988.10
2019-03-22T16:11:18.472Z,988.05
2019-03-22T16:12:18.400Z,988.05
2019-03-22T16:13:18.320Z,988.05
2019-03-22T16:14:18.223Z,988.10
2019-03-22T16:15:18.142Z,988.08
2019-03-22T16:16:18.062Z,988.07
2019-03-22T16:17:17.997Z,988.08
2019-03-22T16:18:17.957Z,988.08
2019-03-22T16:19:17.851Z,988.04
2019-03-22T16:20:17.794Z,988.08
2019-03-22T16:21:17.769Z,988.11
2019-03-22T16:22:17.739Z,988.09
2019-03-22T16:23:17.611Z,988.07
2019-03-22T16:24:17.497Z,988.06
2019-03-22T16:25:17.456Z,988.09
2019-03-22T16:26:17.346Z,988.07
2019-03-22T16:27:17.279Z,988.05
2019-03-22T16:28:17.281Z,988.06
2019-03-22T16:29:17.144Z,988.08
2019-03-22T16:30:17.121Z,988.07
2019-03-22T16:31:17.027Z,988.04
2019-03-22T16:32:16.920Z,988.02
2019-03-22T16:33:16.896Z,988.04
2019-03-22T16:34:16.766Z,988.03
2019-03-22T16:35:16.696Z,988.05
2019-03-22T16:36:16.686Z,988.01
2019-03-22T16:37:16.554Z,988.05
2019-03-22T16:38:16.497Z,988.05
2019-03-22T16:39:16.507Z,988.07
2019-03-22T16:40:23.801Z,988.02
2019-03-22T16:41:16.297Z,988.04
2019-03-22T16:42:16.197Z,988.05
2019-03-22T16:43:16.115Z,988.02
2019-03-22T16:44:16.114Z,988.03
2019-03-22T16:45:15.973Z,988.00
2019-03-22T16:46:15.917Z,988.00
2019-03-22T16:47:15.839Z,988.03
2019-03-22T16:48:15.752Z,988.03
2019-03-22T16:49:15.724Z,988.03
2019-03-22T16:50:15.609Z,988.04
2019-03-22T16:51:15.536Z,988.01
2019-03-22T16:52:15.486Z,988.02
2019-03-22T16:53:15.473Z,988.01
2019-03-22T16:54:15.874Z,987.99
2019-03-22T16:55:15.281Z,987.95
2019-03-22T16:56:15.173Z,987.96
2019-03-22T16:57:15.148Z,987.98
2019-03-22T16:58:15.078Z,987.94
2019-03-22T16:59:15.006Z,987.98
2019-03-22T17:00:14.879Z,987.98
2019-03-22T17:01:14.809Z,987.96
2019-03-22T17:02:14.781Z,987.97
2019-03-22T17:03:14.658Z,987.97
2019-03-22T17:04:14.591Z,987.94
2019-03-22T17:05:15.379Z,987.95
2019-03-22T17:06:14.482Z,987.95
2019-03-22T17:07:14.367Z,987.96
2019-03-22T17:08:14.302Z,987.94
2019-03-22T17:09:14.224Z,987.96
2019-03-22T17:10:14.146Z,987.91
2019-03-22T17:11:14.076Z,987.96
2019-03-22T17:12:14.066Z,987.98
2019-03-22T17:13:13.937Z,987.97
2019-03-22T17:14:13.853Z,987.99
2019-03-22T17:15:13.800Z,987.97
2019-03-22T17:16:13.715Z,987.99
2019-03-22T17:17:13.629Z,988.00
2019-03-22T17:18:13.633Z,987.97
2019-03-22T17:19:13.574Z,987.98
2019-03-22T17:20:13.462Z,987.94
2019-03-22T17:21:13.417Z,987.97
2019-03-22T17:22:13.319Z,987.95
2019-03-22T17:23:13.212Z,987.95
2019-03-22T17:24:13.169Z,987.96
2019-03-22T17:25:13.049Z,987.92
2019-03-22T17:26:12.972Z,987.93
2019-03-22T17:27:12.894Z,987.88
2019-03-22T17:28:12.834Z,987.88
2019-03-22T17:29:12.789Z,987.89
2019-03-22T17:30:12.757Z,987.89
2019-03-22T17:31:12.615Z,987.89
2019-03-22T17:32:12.531Z,987.89
2019-03-22T17:33:12.446Z,987.90
2019-03-22T17:34:14.444Z,987.88
2019-03-22T17:35:12.354Z,987.84
2019-03-22T17:36:12.232Z,987.88
2019-03-22T17:37:12.150Z,987.88
2019-03-22T17:38:12.107Z,987.92
2019-03-22T17:39:12.088Z,987.93
2019-03-22T17:40:11.974Z,987.91
2019-03-22T17:41:11.909Z,987.94
2019-03-22T17:42:11.783Z,987.95
2019-03-22T17:43:11.829Z,987.91
2019-03-22T17:44:11.633Z,987.94
2019-03-22T17:45:11.559Z,987.94
2019-03-22T17:46:11.535Z,987.95
2019-03-22T17:47:11.409Z,987.91
2019-03-22T17:48:11.469Z,987.95
2019-03-22T17:49:11.430Z,987.90
2019-03-22T17:50:11.182Z,987.92
2019-03-22T17:51:11.129Z,987.90
2019-03-22T17:52:11.095Z,987.91
2019-03-22T17:53:11.020Z,987.91
2019-03-22T17:54:11.046Z,987.91
2019-03-22T17:55:10.830Z,987.96
2019-03-22T17:56:10.773Z,987.97
2019-03-22T17:57:18.336Z,987.98
2019-03-22T17:58:10.651Z,987.98
2019-03-22T17:59:10.508Z,987.97
2019-03-22T18:00:10.535Z,987.98
2019-03-22T18:01:10.398Z,987.97
2019-03-22T18:02:10.280Z,987.99
2019-03-22T18:03:10.246Z,987.99
2019-03-22T18:04:10.193Z,987.97
2019-03-22T18:05:10.045Z,988.03
2019-03-22T18:06:09.971Z,988.04
2019-03-22T18:07:09.944Z,988.03
2019-03-22T18:08:09.891Z,988.01
2019-03-22T18:09:09.794Z,988.00
2019-03-22T18:10:09.905Z,988.01
2019-03-22T18:11:09.733Z,988.00
2019-03-22T18:12:09.590Z,988.02
2019-03-22T18:13:09.476Z,988.04
2019-03-22T18:14:09.625Z,988.02
2019-03-22T18:15:09.312Z,988.03
2019-03-22T18:16:09.319Z,988.03
2019-03-22T18:17:09.230Z,988.06
2019-03-22T18:18:09.238Z,988.07
2019-03-22T18:19:09.471Z,988.04
2019-03-22T18:20:08.962Z,988.03
2019-03-22T18:21:08.997Z,988.03
2019-03-22T18:22:08.772Z,988.02
2019-03-22T18:23:11.572Z,988.02
2019-03-22T18:24:09.104Z,988.00
2019-03-22T18:25:10.128Z,988.01
2019-03-22T18:26:17.323Z,987.99
2019-03-22T18:27:10.202Z,987.97
2019-03-22T18:28:09.914Z,987.99
2019-03-22T18:29:08.529Z,987.99
2019-03-22T18:30:08.183Z,988.01
2019-03-22T18:31:08.278Z,987.98
2019-03-22T18:32:08.155Z,988.01
2019-03-22T18:33:08.031Z,987.99
2019-03-22T18:34:08.006Z,987.96
2019-03-22T18:35:08.113Z,987.98
2019-03-22T18:36:07.693Z,987.95
2019-03-22T18:37:07.760Z,987.96
2019-03-22T18:38:07.602Z,987.96
2019-03-22T18:39:07.580Z,987.96
2019-03-22T18:40:07.664Z,987.94
2019-03-22T18:41:07.400Z,987.91
2019-03-22T18:42:07.334Z,987.92
2019-03-22T18:43:07.290Z,987.88
2019-03-22T18:44:07.165Z,987.91
2019-03-22T18:45:07.070Z,987.95
2019-03-22T18:46:07.076Z,987.90
2019-03-22T18:47:06.876Z,987.88
2019-03-22T18:48:06.984Z,987.89
2019-03-22T18:49:06.864Z,987.92
2019-03-22T18:50:06.726Z,987.95
2019-03-22T18:51:06.621Z,987.89
2019-03-22T18:52:08.171Z,987.93
2019-03-22T18:53:06.474Z,987.92
2019-03-22T18:54:06.289Z,987.94
2019-03-22T18:55:06.235Z,987.96
2019-03-22T18:56:06.196Z,987.95
2019-03-22T18:57:06.082Z,987.94
2019-03-22T18:58:05.989Z,988.00
2019-03-22T18:59:05.910Z,988.00
2019-03-22T19:00:05.940Z,987.99
2019-03-22T19:01:05.844Z,987.98
2019-03-22T19:02:05.724Z,988.03
2019-03-22T19:03:05.697Z,988.01
2019-03-22T19:04:05.740Z,988.04
2019-03-22T19:05:05.546Z,988.02
2019-03-22T19:06:05.408Z,988.02
2019-03-22T19:07:05.415Z,988.02
2019-03-22T19:08:05.215Z,988.02
2019-03-22T19:09:05.185Z,987.99
2019-03-22T19:10:05.248Z,988.02
2019-03-22T19:11:05.139Z,988.01
2019-03-22T19:12:04.947Z,988.01
2019-03-22T19:13:04.890Z,988.00
2019-03-22T19:14:04.742Z,988.02
2019-03-22T19:15:04.672Z,988.02
2019-03-22T19:16:04.633Z,988.03
2019-03-22T19:17:04.522Z,988.00
2019-03-22T19:18:04.459Z,987.99
2019-03-22T19:19:04.412Z,988.01
2019-03-22T19:20:04.278Z,987.98
2019-03-22T19:21:04.199Z,988.03
2019-03-22T19:22:04.232Z,987.99
2019-03-22T19:23:04.083Z,988.01
2019-03-22T19:24:04.006Z,988.02
2019-03-22T19:25:03.891Z,987.99
2019-03-22T19:26:03.872Z,987.99
2019-03-22T19:27:03.733Z,987.98
2019-03-22T19:28:03.656Z,988.02
2019-03-22T19:29:03.650Z,988.03
2019-03-22T19:30:03.516Z,988.05
2019-03-22T19:31:03.460Z,988.06
2019-03-22T19:32:13.143Z,988.06
2019-03-22T19:33:03.319Z,988.09
2019-03-22T19:34:03.227Z,988.06
2019-03-22T19:35:03.110Z,988.02
2019-03-22T19:36:03.087Z,988.07
2019-03-22T19:37:02.998Z,988.04
2019-03-22T19:38:02.916Z,988.06
2019-03-22T19:39:02.803Z,988.02
2019-03-22T19:40:02.722Z,988.05
2019-03-22T19:41:02.643Z,988.04
2019-03-22T19:42:02.566Z,988.06
2019-03-22T19:43:02.496Z,988.07
2019-03-22T19:44:02.412Z,988.08
2019-03-22T19:45:02.377Z,988.06
2019-03-22T19:46:02.283Z,988.09
2019-03-22T19:47:02.170Z,988.09
2019-03-22T19:48:02.093Z,988.10
2019-03-22T19:49:02.015Z,988.05
2019-03-22T19:50:01.933Z,988.09
2019-03-22T19:51:01.857Z,988.06
2019-03-22T19:52:01.822Z,988.04
2019-03-22T19:53:01.721Z,988.03
2019-03-22T19:54:01.671Z,988.04
2019-03-22T19:55:01.540Z,988.07
2019-03-22T19:56:01.461Z,988.08
2019-03-22T19:57:01.417Z,988.07
2019-03-22T19:58:01.370Z,988.05
2019-03-22T19:59:01.226Z,988.09
2019-03-22T20:00:01.159Z,988.06
2019-03-22T20:01:01.130Z,988.06
2019-03-22T20:02:01.049Z,988.10
2019-03-22T20:03:00.923Z,988.07
2019-03-22T20:04:00.847Z,988.07
2019-03-22T20:05:04.629Z,988.07
2019-03-22T20:06:00.760Z,988.05
2019-03-22T20:07:00.663Z,988.04
2019-03-22T20:08:00.602Z,988.02
2019-03-22T20:09:00.487Z,988.02
2019-03-22T20:10:00.428Z,988.02
2019-03-22T20:11:00.333Z,988.01
2019-03-22T20:12:00.209Z,987.98
2019-03-22T20:13:00.152Z,987.98
2019-03-22T20:14:00.097Z,987.96
2019-03-22T20:15:00.015Z,987.95
2019-03-22T20:15:59.925Z,987.94
2019-03-22T20:16:59.812Z,987.92
2019-03-22T20:17:59.798Z,987.93
2019-03-22T20:18:59.668Z,987.94
2019-03-22T20:19:59.576Z,987.90
2019-03-22T20:20:59.536Z,987.93
2019-03-22T20:21:59.423Z,987.92
2019-03-22T20:22:59.422Z,987.91
2019-03-22T20:23:59.271Z,987.93
2019-03-22T20:24:59.186Z,987.96
2019-03-22T20:25:59.105Z,987.97
2019-03-22T20:26:59.068Z,987.95
2019-03-22T20:27:58.942Z,987.95
2019-03-22T20:28:58.868Z,987.94
2019-03-22T20:29:58.804Z,987.97
2019-03-22T20:30:58.759Z,987.97
2019-03-22T20:31:58.645Z,987.98
2019-03-22T20:32:58.609Z,988.01
2019-03-22T20:33:58.518Z,987.97
2019-03-22T20:34:58.414Z,987.95
2019-03-22T20:35:58.356Z,987.97
2019-03-22T20:36:58.282Z,987.89
2019-03-22T20:37:58.219Z,987.91
2019-03-22T20:38:58.124Z,987.91
2019-03-22T20:39:58.003Z,987.93
2019-03-22T20:40:57.961Z,987.94
2019-03-22T20:41:57.913Z,987.93
2019-03-22T20:42:57.762Z,987.96
2019-03-22T20:43:57.683Z,987.96
2019-03-22T20:44:57.611Z,987.95
2019-03-22T20:45:57.530Z,987.98
2019-03-22T20:46:57.445Z,988.05
2019-03-22T20:47:57.437Z,987.96
2019-03-22T20:48:57.292Z,988.03
2019-03-22T20:49:57.214Z,988.00
2019-03-22T20:50:57.130Z,988.04
2019-03-22T20:51:57.051Z,988.06
2019-03-22T20:52:56.965Z,988.02
2019-03-22T20:53:56.892Z,988.04
2019-03-22T20:54:56.865Z,988.00
2019-03-22T20:55:56.766Z,988.03
2019-03-22T20:56:56.704Z,988.03
2019-03-22T20:57:56.583Z,988.05
2019-03-22T20:58:56.490Z,988.01
2019-03-22T20:59:56.442Z,988.04
2019-03-22T21:00:56.360Z,988.03
2019-03-22T21:01:56.265Z,988.02
2019-03-22T21:02:56.191Z,988.00
2019-03-22T21:03:56.132Z,988.01
2019-03-22T21:04:56.009Z,988.00
2019-03-22T21:05:55.954Z,988.03
2019-03-22T21:06:55.863Z,988.01
2019-03-22T21:07:55.825Z,987.99
2019-03-22T21:08:55.739Z,988.06
2019-03-22T21:09:55.663Z,988.02
2019-03-22T21:10:55.536Z,988.02
2019-03-22T21:11:55.515Z,988.01
2019-03-22T21:12:55.379Z,988.02
2019-03-22T21:13:55.298Z,988.01
2019-03-22T21:14:55.216Z,988.00
2019-03-22T21:15:55.143Z,988.00
2019-03-22T21:16:55.106Z,988.00
2019-03-22T21:17:54.980Z,987.98
2019-03-22T21:18:54.901Z,987.98
2019-03-22T21:19:54.856Z,988.00
2019-03-22T21:20:54.743Z,988.00
2019-03-22T21:21:54.677Z,987.99
2019-03-22T21:22:54.579Z,987.96
2019-03-22T21:23:54.502Z,987.96
2019-03-22T21:24:54.418Z,988.00
2019-03-22T21:25:54.335Z,988.00
2019-03-22T21:26:54.314Z,988.02
2019-03-22T21:27:54.222Z,987.99
2019-03-22T21:28:54.095Z,987.95
2019-03-22T21:29:54.023Z,987.97
2019-03-22T21:30:54.004Z,987.94
2019-03-22T21:31:53.957Z,987.94
2019-03-22T21:32:53.786Z,987.92
2019-03-22T21:33:53.730Z,987.88
2019-03-22T21:34:53.675Z,987.89
2019-03-22T21:35:53.607Z,987.89
2019-03-22T21:36:53.462Z,987.88
2019-03-22T21:37:53.393Z,987.86
2019-03-22T21:38:53.303Z,987.85
2019-03-22T21:39:53.264Z,987.85
2019-03-22T21:40:53.183Z,987.85
2019-03-22T21:41:53.075Z,987.81
2019-03-22T21:42:52.979Z,987.83
2019-03-22T21:43:52.903Z,987.83
2019-03-22T21:44:52.819Z,987.85
2019-03-22T21:45:52.772Z,987.85
2019-03-22T21:46:52.656Z,987.84
2019-03-22T21:47:52.632Z,987.84
2019-03-22T21:48:52.549Z,987.85
2019-03-22T21:49:52.459Z,987.84
2019-03-22T21:50:52.339Z,987.85
2019-03-22T21:51:52.258Z,987.81
2019-03-22T21:52:52.185Z,987.86
2019-03-22T21:53:52.151Z,987.83
2019-03-22T21:54:52.099Z,987.82
2019-03-22T21:55:54.140Z,987.83
2019-03-22T21:56:51.906Z,987.82
2019-03-22T21:57:51.778Z,987.81
2019-03-22T21:58:51.758Z,987.82
2019-03-22T21:59:51.673Z,987.80
2019-03-22T22:00:51.534Z,987.80
2019-03-22T22:01:51.460Z,987.75
2019-03-22T22:02:51.423Z,987.80
2019-03-22T22:03:51.294Z,987.78
2019-03-22T22:04:51.222Z,987.77
2019-03-22T22:05:51.179Z,987.79
2019-03-22T22:06:51.057Z,987.78
2019-03-22T22:07:51.021Z,987.78
2019-03-22T22:08:50.894Z,987.77
2019-03-22T22:09:50.848Z,987.80
2019-03-22T22:10:59.361Z,987.76
2019-03-22T22:11:50.716Z,987.77
2019-03-22T22:12:50.580Z,987.78
2019-03-22T22:13:50.498Z,987.78
2019-03-22T22:14:50.408Z,987.76
2019-03-22T22:15:50.344Z,987.75
2019-03-22T22:16:50.258Z,987.77
2019-03-22T22:17:50.169Z,987.75
2019-03-22T22:18:50.088Z,987.72
2019-03-22T22:19:50.034Z,987.76
2019-03-22T22:20:49.937Z,987.71
2019-03-22T22:21:49.886Z,987.73
2019-03-22T22:22:49.811Z,987.73
2019-03-22T22:23:49.692Z,987.72
2019-03-22T22:24:49.606Z,987.70
2019-03-22T22:25:49.574Z,987.73
2019-03-22T22:26:49.508Z,987.77
2019-03-22T22:27:49.408Z,987.73
2019-03-22T22:28:49.354Z,987.78
2019-03-22T22:29:49.271Z,987.77
2019-03-22T22:30:49.131Z,987.73
2019-03-22T22:31:49.046Z,987.70
2019-03-22T22:32:49.014Z,987.74
2019-03-22T22:33:48.897Z,987.71
2019-03-22T22:34:49.021Z,987.70
2019-03-22T22:35:58.133Z,987.66
2019-03-22T22:36:48.650Z,987.69
2019-03-22T22:37:48.606Z,987.67
2019-03-22T22:38:48.472Z,987.70
2019-03-22T22:39:48.456Z,987.68
2019-03-22T22:40:48.394Z,987.66
2019-03-22T22:41:48.236Z,987.71
2019-03-22T22:42:48.213Z,987.69
2019-03-22T22:43:48.135Z,987.68
2019-03-22T22:44:48.035Z,987.65
2019-03-22T22:45:47.915Z,987.65
2019-03-22T22:46:47.830Z,987.65
2019-03-22T22:47:47.752Z,987.61
2019-03-22T22:48:47.664Z,987.64
2019-03-22T22:49:48.384Z,987.63
2019-03-22T22:50:47.510Z,987.64
2019-03-22T22:51:47.514Z,987.62
2019-03-22T22:52:47.431Z,987.63
2019-03-22T22:53:47.278Z,987.61
2019-03-22T22:54:47.244Z,987.61
2019-03-22T22:55:47.098Z,987.59
2019-03-22T22:56:47.195Z,987.62
2019-03-22T22:57:46.939Z,987.59
2019-03-22T22:58:46.898Z,987.62
2019-03-22T22:59:46.785Z,987.60
2019-03-22T23:00:46.998Z,987.62
2019-03-22T23:01:46.672Z,987.61
2019-03-22T23:02:46.542Z,987.60
2019-03-22T23:03:46.464Z,987.59
2019-03-22T23:04:46.372Z,987.63
2019-03-22T23:05:46.292Z,987.62
2019-03-22T23:06:46.212Z,987.58
2019-03-22T23:07:46.135Z,987.62
2019-03-22T23:08:46.119Z,987.63
2019-03-22T23:09:46.049Z,987.62
2019-03-22T23:10:45.901Z,987.64
2019-03-22T23:11:45.802Z,987.62
2019-03-22T23:12:45.793Z,987.60
2019-03-22T23:13:45.642Z,987.61
2019-03-22T23:14:45.555Z,987.56
2019-03-22T23:15:45.548Z,987.60
2019-03-22T23:16:45.395Z,987.57
2019-03-22T23:17:45.374Z,987.54
2019-03-22T23:18:45.284Z,987.55
2019-03-22T23:19:45.184Z,987.53
2019-03-22T23:20:45.119Z,987.53
2019-03-22T23:21:44.991Z,987.54
2019-03-22T23:22:44.916Z,987.53
2019-03-22T23:23:44.830Z,987.54
2019-03-22T23:24:44.825Z,987.51
2019-03-22T23:25:44.667Z,987.54
2019-03-22T23:26:44.588Z,987.55
2019-03-22T23:27:44.571Z,987.59
2019-03-22T23:28:44.428Z,987.59
2019-03-22T23:29:44.408Z,987.58
2019-03-22T23:30:44.325Z,987.60
2019-03-22T23:31:45.902Z,987.61
2019-03-22T23:32:44.143Z,987.60
2019-03-22T23:33:44.041Z,987.59
2019-03-22T23:34:43.988Z,987.59
2019-03-22T23:35:43.865Z,987.59
2019-03-22T23:36:43.779Z,987.60
2019-03-22T23:37:43.756Z,987.59
2019-03-22T23:38:43.616Z,987.62
2019-03-22T23:39:43.531Z,987.63
2019-03-22T23:40:43.495Z,987.64
2019-03-22T23:41:43.445Z,987.62
2019-03-22T23:42:43.313Z,987.61
2019-03-22T23:43:43.212Z,987.62
2019-03-22T23:44:43.128Z,987.63
2019-03-22T23:45:43.040Z,987.66
2019-03-22T23:46:43.002Z,987.66
2019-03-22T23:47:42.929Z,987.68
2019-03-22T23:48:42.843Z,987.66
2019-03-22T23:49:42.761Z,987.66
2019-03-22T23:50:42.671Z,987.66
2019-03-22T23:51:42.545Z,987.69
2019-03-22T23:52:42.471Z,987.68
2019-03-22T23:53:42.391Z,987.66
2019-03-22T23:54:42.313Z,987.67
2019-03-22T23:55:42.279Z,987.65
2019-03-22T23:56:42.155Z,987.63
2019-03-22T23:57:42.059Z,987.66
2019-03-22T23:58:41.989Z,987.64
2019-03-22T23:59:41.892Z,987.63
